sensor_id;sensor_type;location;lat;lon;timestamp;temperature;humidity
68354;DHT22;55274;43.060;25.618;2024-03-02T00:00:06;8.80;99.90
68354;DHT22;55274;43.060;25.618;2024-03-02T00:02:44;8.80;99.90
68354;DHT22;55274;43.060;25.618;2024-03-02T00:05:20;8.80;99.90
68354;DHT22;55274;43.060;25.618;2024-03-02T00:07:53;8.80;99.90
68354;DHT22;55274;43.060;25.618;2024-03-02T00:10:25;8.80;99.90
68354;DHT22;55274;43.060;25.618;2024-03-02T00:12:58;8.90;99.90
68354;DHT22;55274;43.060;25.618;2024-03-02T00:17:56;8.90;99.90
68354;DHT22;55274;43.060;25.618;2024-03-02T00:20:22;8.90;99.90
68354;DHT22;55274;43.060;25.618;2024-03-02T00:22:51;8.90;99.90
68354;DHT22;55274;43.060;25.618;2024-03-02T00:25:17;8.90;99.90
68354;DHT22;55274;43.060;25.618;2024-03-02T00:27:47;8.80;99.90
68354;DHT22;55274;43.060;25.618;2024-03-02T00:33:19;8.80;99.90
68354;DHT22;55274;43.060;25.618;2024-03-02T00:35:47;8.70;99.90
68354;DHT22;55274;43.060;25.618;2024-03-02T00:38:14;8.70;99.90
68354;DHT22;55274;43.060;25.618;2024-03-02T00:40:41;8.70;99.90
68354;DHT22;55274;43.060;25.618;2024-03-02T00:46:03;8.70;99.90
68354;DHT22;55274;43.060;25.618;2024-03-02T00:48:30;8.70;99.90
68354;DHT22;55274;43.060;25.618;2024-03-02T00:50:57;8.60;99.90
68354;DHT22;55274;43.060;25.618;2024-03-02T00:53:24;8.60;99.90
68354;DHT22;55274;43.060;25.618;2024-03-02T00:55:52;8.60;99.90
68354;DHT22;55274;43.060;25.618;2024-03-02T00:58:18;8.60;99.90
68354;DHT22;55274;43.060;25.618;2024-03-02T01:00:44;8.60;99.90
68354;DHT22;55274;43.060;25.618;2024-03-02T01:03:09;8.50;99.90
68354;DHT22;55274;43.060;25.618;2024-03-02T01:05:36;8.50;99.90
68354;DHT22;55274;43.060;25.618;2024-03-02T01:08:02;8.50;99.90
68354;DHT22;55274;43.060;25.618;2024-03-02T01:10:28;8.50;99.90
68354;DHT22;55274;43.060;25.618;2024-03-02T01:12:54;8.50;99.90
68354;DHT22;55274;43.060;25.618;2024-03-02T01:15:19;8.50;99.90
68354;DHT22;55274;43.060;25.618;2024-03-02T01:17:46;8.50;99.90
68354;DHT22;55274;43.060;25.618;2024-03-02T01:20:12;8.50;99.90
68354;DHT22;55274;43.060;25.618;2024-03-02T01:22:37;8.50;99.90
68354;DHT22;55274;43.060;25.618;2024-03-02T01:25:04;8.50;99.90
68354;DHT22;55274;43.060;25.618;2024-03-02T01:27:29;8.50;99.90
68354;DHT22;55274;43.060;25.618;2024-03-02T01:29:55;8.50;99.90
68354;DHT22;55274;43.060;25.618;2024-03-02T01:32:21;8.50;99.90
68354;DHT22;55274;43.060;25.618;2024-03-02T01:34:47;8.50;99.90
68354;DHT22;55274;43.060;25.618;2024-03-02T01:37:13;8.50;99.90
68354;DHT22;55274;43.060;25.618;2024-03-02T01:39:39;8.50;99.90
68354;DHT22;55274;43.060;25.618;2024-03-02T01:42:05;8.40;99.90
68354;DHT22;55274;43.060;25.618;2024-03-02T01:44:30;8.40;99.90
68354;DHT22;55274;43.060;25.618;2024-03-02T01:46:56;8.40;99.90
68354;DHT22;55274;43.060;25.618;2024-03-02T01:49:22;8.40;99.90
68354;DHT22;55274;43.060;25.618;2024-03-02T01:51:48;8.40;99.90
68354;DHT22;55274;43.060;25.618;2024-03-02T01:54:14;8.40;99.90
68354;DHT22;55274;43.060;25.618;2024-03-02T01:56:40;8.40;99.90
68354;DHT22;55274;43.060;25.618;2024-03-02T01:59:06;8.40;99.90
68354;DHT22;55274;43.060;25.618;2024-03-02T02:01:32;8.40;99.90
68354;DHT22;55274;43.060;25.618;2024-03-02T02:03:57;8.40;99.90
68354;DHT22;55274;43.060;25.618;2024-03-02T02:06:23;8.40;99.90
68354;DHT22;55274;43.060;25.618;2024-03-02T02:08:49;8.40;99.90
68354;DHT22;55274;43.060;25.618;2024-03-02T02:11:15;8.40;99.90
68354;DHT22;55274;43.060;25.618;2024-03-02T02:13:41;8.40;99.90
68354;DHT22;55274;43.060;25.618;2024-03-02T02:16:08;8.40;99.90
68354;DHT22;55274;43.060;25.618;2024-03-02T02:18:34;8.40;99.90
68354;DHT22;55274;43.060;25.618;2024-03-02T02:21:04;8.40;99.90
68354;DHT22;55274;43.060;25.618;2024-03-02T02:23:30;8.40;99.90
68354;DHT22;55274;43.060;25.618;2024-03-02T02:25:56;8.40;99.90
68354;DHT22;55274;43.060;25.618;2024-03-02T02:28:22;8.40;99.90
68354;DHT22;55274;43.060;25.618;2024-03-02T02:30:47;8.40;99.90
68354;DHT22;55274;43.060;25.618;2024-03-02T02:33:13;8.40;99.90
68354;DHT22;55274;43.060;25.618;2024-03-02T02:35:39;8.40;99.90
68354;DHT22;55274;43.060;25.618;2024-03-02T02:38:05;8.40;99.90
68354;DHT22;55274;43.060;25.618;2024-03-02T02:40:31;8.40;99.90
68354;DHT22;55274;43.060;25.618;2024-03-02T02:42:57;8.40;99.90
68354;DHT22;55274;43.060;25.618;2024-03-02T02:45:23;8.30;99.90
68354;DHT22;55274;43.060;25.618;2024-03-02T02:47:49;8.30;99.90
68354;DHT22;55274;43.060;25.618;2024-03-02T02:50:15;8.30;99.90
68354;DHT22;55274;43.060;25.618;2024-03-02T02:52:42;8.40;99.90
68354;DHT22;55274;43.060;25.618;2024-03-02T02:55:12;8.30;99.90
68354;DHT22;55274;43.060;25.618;2024-03-02T02:57:41;8.30;99.90
68354;DHT22;55274;43.060;25.618;2024-03-02T03:00:10;8.30;99.90
68354;DHT22;55274;43.060;25.618;2024-03-02T03:02:40;8.30;99.90
68354;DHT22;55274;43.060;25.618;2024-03-02T03:05:07;8.30;99.90
68354;DHT22;55274;43.060;25.618;2024-03-02T03:07:33;8.30;99.90
68354;DHT22;55274;43.060;25.618;2024-03-02T03:10:03;8.30;99.90
68354;DHT22;55274;43.060;25.618;2024-03-02T03:12:30;8.30;99.90
68354;DHT22;55274;43.060;25.618;2024-03-02T03:14:59;8.30;99.90
68354;DHT22;55274;43.060;25.618;2024-03-02T03:17:25;8.30;99.90
68354;DHT22;55274;43.060;25.618;2024-03-02T03:19:51;8.30;99.90
68354;DHT22;55274;43.060;25.618;2024-03-02T03:22:17;8.30;99.90
68354;DHT22;55274;43.060;25.618;2024-03-02T03:24:43;8.30;99.90
68354;DHT22;55274;43.060;25.618;2024-03-02T03:27:09;8.30;99.90
68354;DHT22;55274;43.060;25.618;2024-03-02T03:29:38;8.20;99.90
68354;DHT22;55274;43.060;25.618;2024-03-02T03:32:04;8.30;99.90
68354;DHT22;55274;43.060;25.618;2024-03-02T03:34:35;8.30;99.90
68354;DHT22;55274;43.060;25.618;2024-03-02T03:37:01;8.40;99.90
68354;DHT22;55274;43.060;25.618;2024-03-02T03:39:27;8.40;99.90
68354;DHT22;55274;43.060;25.618;2024-03-02T03:41:54;8.40;99.90
68354;DHT22;55274;43.060;25.618;2024-03-02T03:44:20;8.40;99.90
68354;DHT22;55274;43.060;25.618;2024-03-02T03:46:45;8.40;99.90
68354;DHT22;55274;43.060;25.618;2024-03-02T03:49:11;8.40;99.90
68354;DHT22;55274;43.060;25.618;2024-03-02T03:51:37;8.40;99.90
68354;DHT22;55274;43.060;25.618;2024-03-02T03:54:02;8.30;99.90
68354;DHT22;55274;43.060;25.618;2024-03-02T03:56:28;8.30;99.90
68354;DHT22;55274;43.060;25.618;2024-03-02T03:58:54;8.30;99.90
68354;DHT22;55274;43.060;25.618;2024-03-02T04:01:20;8.30;99.90
68354;DHT22;55274;43.060;25.618;2024-03-02T04:03:48;8.30;99.90
68354;DHT22;55274;43.060;25.618;2024-03-02T04:06:14;8.30;99.90
68354;DHT22;55274;43.060;25.618;2024-03-02T04:08:41;8.20;99.90
68354;DHT22;55274;43.060;25.618;2024-03-02T04:11:07;8.20;99.90
68354;DHT22;55274;43.060;25.618;2024-03-02T04:13:33;8.20;99.90
68354;DHT22;55274;43.060;25.618;2024-03-02T04:15:59;8.20;99.90
68354;DHT22;55274;43.060;25.618;2024-03-02T04:18:25;8.20;99.90
68354;DHT22;55274;43.060;25.618;2024-03-02T04:20:51;8.20;99.90
68354;DHT22;55274;43.060;25.618;2024-03-02T04:23:16;8.20;99.90
68354;DHT22;55274;43.060;25.618;2024-03-02T04:25:42;8.20;99.90
68354;DHT22;55274;43.060;25.618;2024-03-02T04:28:08;8.20;99.90
68354;DHT22;55274;43.060;25.618;2024-03-02T04:30:34;8.30;99.90
68354;DHT22;55274;43.060;25.618;2024-03-02T04:32:59;8.30;99.90
68354;DHT22;55274;43.060;25.618;2024-03-02T04:35:26;8.30;99.90
68354;DHT22;55274;43.060;25.618;2024-03-02T04:37:52;8.30;99.90
68354;DHT22;55274;43.060;25.618;2024-03-02T04:40:17;8.30;99.90
68354;DHT22;55274;43.060;25.618;2024-03-02T04:42:43;8.30;99.90
68354;DHT22;55274;43.060;25.618;2024-03-02T04:45:09;8.30;99.90
68354;DHT22;55274;43.060;25.618;2024-03-02T04:47:35;8.20;99.90
68354;DHT22;55274;43.060;25.618;2024-03-02T04:50:01;8.20;99.90
68354;DHT22;55274;43.060;25.618;2024-03-02T04:52:27;8.20;99.90
68354;DHT22;55274;43.060;25.618;2024-03-02T04:54:52;8.20;99.90
68354;DHT22;55274;43.060;25.618;2024-03-02T05:00:21;8.20;99.90
68354;DHT22;55274;43.060;25.618;2024-03-02T05:02:47;8.10;99.90
68354;DHT22;55274;43.060;25.618;2024-03-02T05:05:13;8.10;99.90
68354;DHT22;55274;43.060;25.618;2024-03-02T05:07:41;8.10;99.90
68354;DHT22;55274;43.060;25.618;2024-03-02T05:10:08;8.10;99.90
68354;DHT22;55274;43.060;25.618;2024-03-02T05:12:34;8.10;99.90
68354;DHT22;55274;43.060;25.618;2024-03-02T05:15:10;8.10;99.90
68354;DHT22;55274;43.060;25.618;2024-03-02T05:17:39;8.10;99.90
68354;DHT22;55274;43.060;25.618;2024-03-02T05:20:06;8.10;99.90
68354;DHT22;55274;43.060;25.618;2024-03-02T05:22:36;8.10;99.90
68354;DHT22;55274;43.060;25.618;2024-03-02T05:25:03;8.10;99.90
68354;DHT22;55274;43.060;25.618;2024-03-02T05:27:29;8.10;99.90
68354;DHT22;55274;43.060;25.618;2024-03-02T05:29:55;8.10;99.90
68354;DHT22;55274;43.060;25.618;2024-03-02T05:32:20;8.10;99.90
68354;DHT22;55274;43.060;25.618;2024-03-02T05:34:46;8.10;99.90
68354;DHT22;55274;43.060;25.618;2024-03-02T05:37:12;8.10;99.90
68354;DHT22;55274;43.060;25.618;2024-03-02T05:39:38;8.20;99.90
68354;DHT22;55274;43.060;25.618;2024-03-02T05:42:04;8.20;99.90
68354;DHT22;55274;43.060;25.618;2024-03-02T05:44:29;8.10;99.90
68354;DHT22;55274;43.060;25.618;2024-03-02T05:46:55;8.20;99.90
68354;DHT22;55274;43.060;25.618;2024-03-02T05:49:21;8.20;99.90
68354;DHT22;55274;43.060;25.618;2024-03-02T05:51:48;8.20;99.90
68354;DHT22;55274;43.060;25.618;2024-03-02T05:54:13;8.30;99.90
68354;DHT22;55274;43.060;25.618;2024-03-02T05:56:39;8.30;99.90
68354;DHT22;55274;43.060;25.618;2024-03-02T05:59:05;8.20;99.90
68354;DHT22;55274;43.060;25.618;2024-03-02T06:01:42;8.30;99.90
68354;DHT22;55274;43.060;25.618;2024-03-02T06:04:09;8.30;99.90
68354;DHT22;55274;43.060;25.618;2024-03-02T06:06:34;8.40;99.90
68354;DHT22;55274;43.060;25.618;2024-03-02T06:09:04;8.40;99.90
68354;DHT22;55274;43.060;25.618;2024-03-02T06:11:36;8.40;99.90
68354;DHT22;55274;43.060;25.618;2024-03-02T06:14:04;8.40;99.90
68354;DHT22;55274;43.060;25.618;2024-03-02T06:16:30;8.50;99.90
68354;DHT22;55274;43.060;25.618;2024-03-02T06:18:56;8.50;99.90
68354;DHT22;55274;43.060;25.618;2024-03-02T06:21:27;8.40;99.90
68354;DHT22;55274;43.060;25.618;2024-03-02T06:23:53;8.50;99.90
68354;DHT22;55274;43.060;25.618;2024-03-02T06:26:19;8.50;99.90
68354;DHT22;55274;43.060;25.618;2024-03-02T06:28:45;8.60;99.90
68354;DHT22;55274;43.060;25.618;2024-03-02T06:31:12;8.70;99.90
68354;DHT22;55274;43.060;25.618;2024-03-02T06:33:38;8.70;99.90
68354;DHT22;55274;43.060;25.618;2024-03-02T06:36:04;8.80;99.90
68354;DHT22;55274;43.060;25.618;2024-03-02T06:38:30;8.80;99.90
68354;DHT22;55274;43.060;25.618;2024-03-02T06:40:57;8.80;99.90
68354;DHT22;55274;43.060;25.618;2024-03-02T06:43:23;8.90;99.90
68354;DHT22;55274;43.060;25.618;2024-03-02T06:45:50;8.90;99.90
68354;DHT22;55274;43.060;25.618;2024-03-02T06:48:16;9.00;99.90
68354;DHT22;55274;43.060;25.618;2024-03-02T06:50:46;9.00;99.90
68354;DHT22;55274;43.060;25.618;2024-03-02T06:53:13;9.10;99.90
68354;DHT22;55274;43.060;25.618;2024-03-02T06:55:39;9.10;99.90
68354;DHT22;55274;43.060;25.618;2024-03-02T06:58:05;9.20;99.90
68354;DHT22;55274;43.060;25.618;2024-03-02T07:00:31;9.20;99.90
68354;DHT22;55274;43.060;25.618;2024-03-02T07:02:56;9.30;99.90
68354;DHT22;55274;43.060;25.618;2024-03-02T07:05:22;9.40;99.90
68354;DHT22;55274;43.060;25.618;2024-03-02T07:07:48;9.40;99.90
68354;DHT22;55274;43.060;25.618;2024-03-02T07:10:14;9.50;99.90
68354;DHT22;55274;43.060;25.618;2024-03-02T07:12:39;9.50;99.90
68354;DHT22;55274;43.060;25.618;2024-03-02T07:15:06;9.60;99.90
68354;DHT22;55274;43.060;25.618;2024-03-02T07:17:32;9.60;99.90
68354;DHT22;55274;43.060;25.618;2024-03-02T07:19:58;9.70;99.90
68354;DHT22;55274;43.060;25.618;2024-03-02T07:22:24;9.80;99.90
68354;DHT22;55274;43.060;25.618;2024-03-02T07:24:50;9.80;99.90
68354;DHT22;55274;43.060;25.618;2024-03-02T07:27:16;9.90;99.90
68354;DHT22;55274;43.060;25.618;2024-03-02T07:29:43;9.90;99.90
68354;DHT22;55274;43.060;25.618;2024-03-02T07:32:09;10.10;99.90
68354;DHT22;55274;43.060;25.618;2024-03-02T07:34:36;10.10;99.90
68354;DHT22;55274;43.060;25.618;2024-03-02T07:37:02;10.10;99.90
68354;DHT22;55274;43.060;25.618;2024-03-02T07:39:28;10.10;99.90
68354;DHT22;55274;43.060;25.618;2024-03-02T07:41:55;10.20;99.90
68354;DHT22;55274;43.060;25.618;2024-03-02T07:44:21;10.10;99.90
68354;DHT22;55274;43.060;25.618;2024-03-02T07:46:47;10.20;99.90
68354;DHT22;55274;43.060;25.618;2024-03-02T07:49:15;10.30;99.90
68354;DHT22;55274;43.060;25.618;2024-03-02T07:51:42;10.30;99.90
68354;DHT22;55274;43.060;25.618;2024-03-02T07:54:08;10.40;99.90
68354;DHT22;55274;43.060;25.618;2024-03-02T07:56:34;10.40;99.90
68354;DHT22;55274;43.060;25.618;2024-03-02T07:59:04;10.40;99.90
68354;DHT22;55274;43.060;25.618;2024-03-02T08:01:30;10.50;99.90
68354;DHT22;55274;43.060;25.618;2024-03-02T08:04:00;10.50;99.90
68354;DHT22;55274;43.060;25.618;2024-03-02T08:06:27;10.50;99.90
68354;DHT22;55274;43.060;25.618;2024-03-02T08:08:54;10.50;99.90
68354;DHT22;55274;43.060;25.618;2024-03-02T08:11:20;10.60;99.90
68354;DHT22;55274;43.060;25.618;2024-03-02T08:13:46;10.70;99.90
68354;DHT22;55274;43.060;25.618;2024-03-02T08:16:12;10.80;99.90
68354;DHT22;55274;43.060;25.618;2024-03-02T08:18:38;10.90;99.90
68354;DHT22;55274;43.060;25.618;2024-03-02T08:21:04;10.90;99.90
68354;DHT22;55274;43.060;25.618;2024-03-02T08:23:30;10.90;99.90
68354;DHT22;55274;43.060;25.618;2024-03-02T08:25:57;10.90;99.90
68354;DHT22;55274;43.060;25.618;2024-03-02T08:28:23;11.00;99.90
68354;DHT22;55274;43.060;25.618;2024-03-02T08:30:49;11.00;99.90
68354;DHT22;55274;43.060;25.618;2024-03-02T08:33:14;11.00;99.90
68354;DHT22;55274;43.060;25.618;2024-03-02T08:35:40;11.00;99.90
68354;DHT22;55274;43.060;25.618;2024-03-02T08:38:06;11.00;99.90
68354;DHT22;55274;43.060;25.618;2024-03-02T08:40:32;11.10;99.90
68354;DHT22;55274;43.060;25.618;2024-03-02T08:42:58;11.00;99.90
68354;DHT22;55274;43.060;25.618;2024-03-02T08:45:23;11.00;99.90
68354;DHT22;55274;43.060;25.618;2024-03-02T08:47:49;11.10;99.90
68354;DHT22;55274;43.060;25.618;2024-03-02T08:50:15;11.10;99.90
68354;DHT22;55274;43.060;25.618;2024-03-02T08:52:41;11.20;99.90
68354;DHT22;55274;43.060;25.618;2024-03-02T08:55:08;11.30;99.90
68354;DHT22;55274;43.060;25.618;2024-03-02T08:57:33;11.30;99.90
68354;DHT22;55274;43.060;25.618;2024-03-02T09:00:00;11.40;99.90
68354;DHT22;55274;43.060;25.618;2024-03-02T09:02:26;11.50;99.90
68354;DHT22;55274;43.060;25.618;2024-03-02T09:04:52;11.40;99.90
68354;DHT22;55274;43.060;25.618;2024-03-02T09:07:18;11.40;99.90
68354;DHT22;55274;43.060;25.618;2024-03-02T09:09:44;11.50;99.90
68354;DHT22;55274;43.060;25.618;2024-03-02T09:12:10;11.50;99.90
68354;DHT22;55274;43.060;25.618;2024-03-02T09:14:36;11.50;99.90
68354;DHT22;55274;43.060;25.618;2024-03-02T09:17:03;11.50;99.90
68354;DHT22;55274;43.060;25.618;2024-03-02T09:19:29;11.70;99.90
68354;DHT22;55274;43.060;25.618;2024-03-02T09:21:55;11.80;99.90
68354;DHT22;55274;43.060;25.618;2024-03-02T09:24:22;11.90;99.90
68354;DHT22;55274;43.060;25.618;2024-03-02T09:26:48;12.00;99.90
68354;DHT22;55274;43.060;25.618;2024-03-02T09:29:13;12.00;99.90
68354;DHT22;55274;43.060;25.618;2024-03-02T09:31:40;12.10;99.90
68354;DHT22;55274;43.060;25.618;2024-03-02T09:34:07;12.20;99.90
68354;DHT22;55274;43.060;25.618;2024-03-02T09:36:33;12.20;99.90
68354;DHT22;55274;43.060;25.618;2024-03-02T09:38:58;12.20;99.90
68354;DHT22;55274;43.060;25.618;2024-03-02T09:41:24;12.20;99.90
68354;DHT22;55274;43.060;25.618;2024-03-02T09:43:50;12.30;99.90
68354;DHT22;55274;43.060;25.618;2024-03-02T09:46:16;12.30;99.90
68354;DHT22;55274;43.060;25.618;2024-03-02T09:48:44;12.30;99.90
68354;DHT22;55274;43.060;25.618;2024-03-02T09:51:10;12.40;99.90
68354;DHT22;55274;43.060;25.618;2024-03-02T09:53:36;12.40;99.90
68354;DHT22;55274;43.060;25.618;2024-03-02T09:56:02;12.40;99.90
68354;DHT22;55274;43.060;25.618;2024-03-02T09:58:29;12.50;99.90
68354;DHT22;55274;43.060;25.618;2024-03-02T10:00:55;12.50;99.90
68354;DHT22;55274;43.060;25.618;2024-03-02T10:03:22;12.50;99.90
68354;DHT22;55274;43.060;25.618;2024-03-02T10:05:50;12.40;99.90
68354;DHT22;55274;43.060;25.618;2024-03-02T10:08:15;12.40;99.90
68354;DHT22;55274;43.060;25.618;2024-03-02T10:10:41;12.60;99.90
68354;DHT22;55274;43.060;25.618;2024-03-02T10:13:13;12.60;99.90
68354;DHT22;55274;43.060;25.618;2024-03-02T10:15:40;12.70;99.90
68354;DHT22;55274;43.060;25.618;2024-03-02T10:18:10;12.80;99.90
68354;DHT22;55274;43.060;25.618;2024-03-02T10:20:37;12.80;99.90
68354;DHT22;55274;43.060;25.618;2024-03-02T10:23:16;12.80;99.90
68354;DHT22;55274;43.060;25.618;2024-03-02T10:25:43;12.70;99.90
68354;DHT22;55274;43.060;25.618;2024-03-02T10:28:10;12.70;99.90
68354;DHT22;55274;43.060;25.618;2024-03-02T10:30:36;12.70;99.90
68354;DHT22;55274;43.060;25.618;2024-03-02T10:33:03;12.60;99.90
68354;DHT22;55274;43.060;25.618;2024-03-02T10:35:29;12.70;99.90
68354;DHT22;55274;43.060;25.618;2024-03-02T10:37:58;12.80;99.90
68354;DHT22;55274;43.060;25.618;2024-03-02T10:40:24;12.80;99.90
68354;DHT22;55274;43.060;25.618;2024-03-02T10:42:51;12.90;99.90
68354;DHT22;55274;43.060;25.618;2024-03-02T10:45:20;13.00;99.90
68354;DHT22;55274;43.060;25.618;2024-03-02T10:47:48;13.10;99.90
68354;DHT22;55274;43.060;25.618;2024-03-02T10:50:14;13.20;99.90
68354;DHT22;55274;43.060;25.618;2024-03-02T10:52:40;13.10;99.90
68354;DHT22;55274;43.060;25.618;2024-03-02T10:55:07;13.10;99.90
68354;DHT22;55274;43.060;25.618;2024-03-02T10:57:53;13.20;99.90
68354;DHT22;55274;43.060;25.618;2024-03-02T11:00:20;13.20;99.90
68354;DHT22;55274;43.060;25.618;2024-03-02T11:02:51;13.20;99.90
68354;DHT22;55274;43.060;25.618;2024-03-02T11:05:27;13.30;99.90
68354;DHT22;55274;43.060;25.618;2024-03-02T11:07:59;13.30;99.90
68354;DHT22;55274;43.060;25.618;2024-03-02T11:10:28;13.30;99.90
68354;DHT22;55274;43.060;25.618;2024-03-02T11:13:01;13.40;99.90
68354;DHT22;55274;43.060;25.618;2024-03-02T11:15:27;13.50;99.90
68354;DHT22;55274;43.060;25.618;2024-03-02T11:17:54;13.60;99.90
68354;DHT22;55274;43.060;25.618;2024-03-02T11:20:21;13.70;99.90
68354;DHT22;55274;43.060;25.618;2024-03-02T11:22:47;13.80;99.90
68354;DHT22;55274;43.060;25.618;2024-03-02T11:25:28;13.70;99.90
68354;DHT22;55274;43.060;25.618;2024-03-02T11:33:01;13.90;99.60
68354;DHT22;55274;43.060;25.618;2024-03-02T11:35:33;13.90;99.60
68354;DHT22;55274;43.060;25.618;2024-03-02T11:37:59;14.00;99.20
68354;DHT22;55274;43.060;25.618;2024-03-02T11:40:25;14.00;99.00
68354;DHT22;55274;43.060;25.618;2024-03-02T11:42:51;14.10;99.00
68354;DHT22;55274;43.060;25.618;2024-03-02T11:45:28;14.10;98.30
68354;DHT22;55274;43.060;25.618;2024-03-02T11:47:55;13.90;98.10
68354;DHT22;55274;43.060;25.618;2024-03-02T11:50:35;13.90;98.40
68354;DHT22;55274;43.060;25.618;2024-03-02T11:53:05;13.80;98.60
68354;DHT22;55274;43.060;25.618;2024-03-02T11:55:35;13.70;99.00
68354;DHT22;55274;43.060;25.618;2024-03-02T11:58:05;13.80;99.30
68354;DHT22;55274;43.060;25.618;2024-03-02T12:00:31;13.80;98.50
68354;DHT22;55274;43.060;25.618;2024-03-02T12:03:13;13.80;98.70
68354;DHT22;55274;43.060;25.618;2024-03-02T12:05:39;13.90;98.80
68354;DHT22;55274;43.060;25.618;2024-03-02T12:08:06;14.00;98.10
68354;DHT22;55274;43.060;25.618;2024-03-02T12:10:35;14.00;98.00
68354;DHT22;55274;43.060;25.618;2024-03-02T12:15:27;14.00;97.30
68354;DHT22;55274;43.060;25.618;2024-03-02T12:17:57;14.10;97.80
68354;DHT22;55274;43.060;25.618;2024-03-02T12:20:24;14.10;97.10
68354;DHT22;55274;43.060;25.618;2024-03-02T12:22:55;14.00;96.80
68354;DHT22;55274;43.060;25.618;2024-03-02T12:25:23;14.00;96.80
68354;DHT22;55274;43.060;25.618;2024-03-02T12:27:50;13.90;97.40
68354;DHT22;55274;43.060;25.618;2024-03-02T12:30:17;13.90;97.70
68354;DHT22;55274;43.060;25.618;2024-03-02T12:32:44;13.90;97.40
68354;DHT22;55274;43.060;25.618;2024-03-02T12:35:10;13.80;97.20
68354;DHT22;55274;43.060;25.618;2024-03-02T12:37:51;13.80;97.20
68354;DHT22;55274;43.060;25.618;2024-03-02T12:40:18;13.80;97.60
68354;DHT22;55274;43.060;25.618;2024-03-02T12:42:45;13.70;97.40
68354;DHT22;55274;43.060;25.618;2024-03-02T12:45:12;13.80;97.50
68354;DHT22;55274;43.060;25.618;2024-03-02T12:47:40;13.80;97.00
68354;DHT22;55274;43.060;25.618;2024-03-02T12:50:06;13.70;97.40
68354;DHT22;55274;43.060;25.618;2024-03-02T12:52:33;13.80;97.40
68354;DHT22;55274;43.060;25.618;2024-03-02T12:55:03;13.80;96.90
68354;DHT22;55274;43.060;25.618;2024-03-02T12:57:33;13.80;97.30
68354;DHT22;55274;43.060;25.618;2024-03-02T13:00:03;13.80;97.00
68354;DHT22;55274;43.060;25.618;2024-03-02T13:02:36;13.80;97.00
68354;DHT22;55274;43.060;25.618;2024-03-02T13:05:06;13.80;97.40
68354;DHT22;55274;43.060;25.618;2024-03-02T13:07:37;13.70;97.30
68354;DHT22;55274;43.060;25.618;2024-03-02T13:10:03;13.80;97.30
68354;DHT22;55274;43.060;25.618;2024-03-02T13:12:30;13.90;97.10
68354;DHT22;55274;43.060;25.618;2024-03-02T13:14:58;13.90;97.00
68354;DHT22;55274;43.060;25.618;2024-03-02T13:17:24;13.80;96.50
68354;DHT22;55274;43.060;25.618;2024-03-02T13:19:57;13.70;96.70
68354;DHT22;55274;43.060;25.618;2024-03-02T13:22:27;13.70;97.60
68354;DHT22;55274;43.060;25.618;2024-03-02T13:24:53;13.80;97.30
68354;DHT22;55274;43.060;25.618;2024-03-02T13:27:23;13.70;97.10
68354;DHT22;55274;43.060;25.618;2024-03-02T13:29:49;13.70;97.30
68354;DHT22;55274;43.060;25.618;2024-03-02T13:32:15;13.70;97.30
68354;DHT22;55274;43.060;25.618;2024-03-02T13:34:42;13.70;97.30
68354;DHT22;55274;43.060;25.618;2024-03-02T13:37:08;13.50;97.40
68354;DHT22;55274;43.060;25.618;2024-03-02T13:39:34;13.40;97.80
68354;DHT22;55274;43.060;25.618;2024-03-02T13:42:09;13.30;97.80
68354;DHT22;55274;43.060;25.618;2024-03-02T13:44:36;13.30;98.10
68354;DHT22;55274;43.060;25.618;2024-03-02T13:47:03;13.30;98.30
68354;DHT22;55274;43.060;25.618;2024-03-02T13:49:29;13.20;98.40
68354;DHT22;55274;43.060;25.618;2024-03-02T13:52:00;13.10;98.50
68354;DHT22;55274;43.060;25.618;2024-03-02T13:54:28;13.10;98.90
68354;DHT22;55274;43.060;25.618;2024-03-02T13:56:54;13.00;98.80
68354;DHT22;55274;43.060;25.618;2024-03-02T13:59:20;12.90;99.10
68354;DHT22;55274;43.060;25.618;2024-03-02T14:01:47;12.90;99.50
68354;DHT22;55274;43.060;25.618;2024-03-02T14:04:13;12.90;99.40
68354;DHT22;55274;43.060;25.618;2024-03-02T14:06:38;12.90;99.80
68354;DHT22;55274;43.060;25.618;2024-03-02T14:09:04;12.90;99.90
68354;DHT22;55274;43.060;25.618;2024-03-02T14:11:30;12.90;99.90
68354;DHT22;55274;43.060;25.618;2024-03-02T14:13:56;12.80;99.90
68354;DHT22;55274;43.060;25.618;2024-03-02T14:16:22;12.70;99.90
68354;DHT22;55274;43.060;25.618;2024-03-02T14:18:48;12.70;99.90
68354;DHT22;55274;43.060;25.618;2024-03-02T14:21:14;12.80;99.90
68354;DHT22;55274;43.060;25.618;2024-03-02T14:23:40;12.70;99.90
68354;DHT22;55274;43.060;25.618;2024-03-02T14:26:06;12.80;99.90
68354;DHT22;55274;43.060;25.618;2024-03-02T14:28:32;12.70;99.90
68354;DHT22;55274;43.060;25.618;2024-03-02T14:30:57;12.70;99.90
68354;DHT22;55274;43.060;25.618;2024-03-02T14:33:27;12.60;99.90
68354;DHT22;55274;43.060;25.618;2024-03-02T14:35:53;12.60;99.90
68354;DHT22;55274;43.060;25.618;2024-03-02T14:38:19;12.60;99.90
68354;DHT22;55274;43.060;25.618;2024-03-02T14:40:45;12.60;99.90
68354;DHT22;55274;43.060;25.618;2024-03-02T14:43:11;12.50;99.90
68354;DHT22;55274;43.060;25.618;2024-03-02T14:45:36;12.50;99.90
68354;DHT22;55274;43.060;25.618;2024-03-02T14:48:03;12.50;99.90
68354;DHT22;55274;43.060;25.618;2024-03-02T14:50:29;12.50;99.90
68354;DHT22;55274;43.060;25.618;2024-03-02T14:52:55;12.40;99.90
68354;DHT22;55274;43.060;25.618;2024-03-02T14:55:23;12.40;99.90
68354;DHT22;55274;43.060;25.618;2024-03-02T14:57:49;12.30;99.90
68354;DHT22;55274;43.060;25.618;2024-03-02T15:00:15;12.30;99.90
68354;DHT22;55274;43.060;25.618;2024-03-02T15:02:41;12.30;99.90
68354;DHT22;55274;43.060;25.618;2024-03-02T15:05:07;12.20;99.90
68354;DHT22;55274;43.060;25.618;2024-03-02T15:07:33;12.20;99.90
68354;DHT22;55274;43.060;25.618;2024-03-02T15:09:59;12.20;99.90
68354;DHT22;55274;43.060;25.618;2024-03-02T15:12:25;12.10;99.90
68354;DHT22;55274;43.060;25.618;2024-03-02T15:14:51;12.20;99.90
68354;DHT22;55274;43.060;25.618;2024-03-02T15:17:16;12.20;99.90
68354;DHT22;55274;43.060;25.618;2024-03-02T15:19:44;12.20;99.90
68354;DHT22;55274;43.060;25.618;2024-03-02T15:22:10;12.10;99.90
68354;DHT22;55274;43.060;25.618;2024-03-02T15:24:36;12.00;99.90
68354;DHT22;55274;43.060;25.618;2024-03-02T15:27:02;12.00;99.90
68354;DHT22;55274;43.060;25.618;2024-03-02T15:29:32;11.90;99.90
68354;DHT22;55274;43.060;25.618;2024-03-02T15:31:58;12.00;99.90
68354;DHT22;55274;43.060;25.618;2024-03-02T15:34:24;11.90;99.90
68354;DHT22;55274;43.060;25.618;2024-03-02T15:36:50;11.90;99.90
68354;DHT22;55274;43.060;25.618;2024-03-02T15:39:16;11.90;99.90